sensor_id;sensor_type;location;lat;lon;timestamp;temperature;humidity
14401;DHT22;7285;50.894;5.462;2022-11-06T00:00:34;8.90;99.90
14401;DHT22;7285;50.894;5.462;2022-11-06T00:03:02;9.00;99.90
14401;DHT22;7285;50.894;5.462;2022-11-06T00:05:29;8.90;99.90
14401;DHT22;7285;50.894;5.462;2022-11-06T00:08:25;8.90;99.90
14401;DHT22;7285;50.894;5.462;2022-11-06T00:10:55;8.80;99.90
14401;DHT22;7285;50.894;5.462;2022-11-06T00:13:22;8.90;99.90
14401;DHT22;7285;50.894;5.462;2022-11-06T00:15:50;8.90;99.90
14401;DHT22;7285;50.894;5.462;2022-11-06T00:18:17;8.90;99.90
14401;DHT22;7285;50.894;5.462;2022-11-06T00:20:44;8.90;99.90
14401;DHT22;7285;50.894;5.462;2022-11-06T00:23:11;8.90;99.90
14401;DHT22;7285;50.894;5.462;2022-11-06T00:25:41;8.90;99.90
14401;DHT22;7285;50.894;5.462;2022-11-06T00:28:08;8.90;99.90
14401;DHT22;7285;50.894;5.462;2022-11-06T00:30:35;8.90;99.90
14401;DHT22;7285;50.894;5.462;2022-11-06T00:33:02;8.90;99.90
14401;DHT22;7285;50.894;5.462;2022-11-06T00:35:29;9.00;99.90
14401;DHT22;7285;50.894;5.462;2022-11-06T00:37:56;9.00;99.90
14401;DHT22;7285;50.894;5.462;2022-11-06T00:40:23;9.00;99.90
14401;DHT22;7285;50.894;5.462;2022-11-06T00:42:56;9.00;99.90
14401;DHT22;7285;50.894;5.462;2022-11-06T00:45:23;9.00;99.90
14401;DHT22;7285;50.894;5.462;2022-11-06T00:47:51;9.00;99.90
14401;DHT22;7285;50.894;5.462;2022-11-06T00:50:18;9.10;99.90
14401;DHT22;7285;50.894;5.462;2022-11-06T00:52:45;9.10;99.90
14401;DHT22;7285;50.894;5.462;2022-11-06T00:55:12;9.10;99.90
14401;DHT22;7285;50.894;5.462;2022-11-06T00:57:39;9.10;99.90
14401;DHT22;7285;50.894;5.462;2022-11-06T01:00:08;9.10;99.90
14401;DHT22;7285;50.894;5.462;2022-11-06T01:02:36;9.10;99.90
14401;DHT22;7285;50.894;5.462;2022-11-06T01:05:04;9.10;99.90
14401;DHT22;7285;50.894;5.462;2022-11-06T01:07:31;9.10;99.90
14401;DHT22;7285;50.894;5.462;2022-11-06T01:09:58;9.10;99.90
14401;DHT22;7285;50.894;5.462;2022-11-06T01:12:25;9.10;99.90
14401;DHT22;7285;50.894;5.462;2022-11-06T01:14:52;9.00;99.90
14401;DHT22;7285;50.894;5.462;2022-11-06T01:17:20;9.00;99.90
14401;DHT22;7285;50.894;5.462;2022-11-06T01:19:47;9.10;99.90
14401;DHT22;7285;50.894;5.462;2022-11-06T01:22:14;9.10;99.90
14401;DHT22;7285;50.894;5.462;2022-11-06T01:24:41;9.10;99.90
14401;DHT22;7285;50.894;5.462;2022-11-06T01:27:08;9.10;99.90
14401;DHT22;7285;50.894;5.462;2022-11-06T01:29:35;9.20;99.90
14401;DHT22;7285;50.894;5.462;2022-11-06T01:32:04;9.20;99.90
14401;DHT22;7285;50.894;5.462;2022-11-06T01:34:32;9.20;99.90
14401;DHT22;7285;50.894;5.462;2022-11-06T01:36:59;9.20;99.90
14401;DHT22;7285;50.894;5.462;2022-11-06T01:39:26;9.20;99.90
14401;DHT22;7285;50.894;5.462;2022-11-06T01:41:53;9.30;99.90
14401;DHT22;7285;50.894;5.462;2022-11-06T01:45:01;9.30;99.90
14401;DHT22;7285;50.894;5.462;2022-11-06T01:47:31;9.30;99.90
14401;DHT22;7285;50.894;5.462;2022-11-06T01:50:04;9.30;99.90
14401;DHT22;7285;50.894;5.462;2022-11-06T01:52:33;9.40;99.90
14401;DHT22;7285;50.894;5.462;2022-11-06T01:55:08;9.40;99.90
14401;DHT22;7285;50.894;5.462;2022-11-06T01:57:36;9.40;99.90
14401;DHT22;7285;50.894;5.462;2022-11-06T02:00:04;9.40;99.90
14401;DHT22;7285;50.894;5.462;2022-11-06T02:02:32;9.40;99.90
14401;DHT22;7285;50.894;5.462;2022-11-06T02:05:00;9.30;99.90
14401;DHT22;7285;50.894;5.462;2022-11-06T02:07:27;9.30;99.90
14401;DHT22;7285;50.894;5.462;2022-11-06T02:09:54;9.30;99.90
14401;DHT22;7285;50.894;5.462;2022-11-06T02:12:33;9.30;99.90
14401;DHT22;7285;50.894;5.462;2022-11-06T02:15:08;9.20;99.90
14401;DHT22;7285;50.894;5.462;2022-11-06T02:17:46;9.20;99.90
14401;DHT22;7285;50.894;5.462;2022-11-06T02:20:21;9.20;99.90
14401;DHT22;7285;50.894;5.462;2022-11-06T02:23:05;9.20;99.90
14401;DHT22;7285;50.894;5.462;2022-11-06T02:25:42;9.20;99.90
14401;DHT22;7285;50.894;5.462;2022-11-06T02:28:21;9.20;99.90
14401;DHT22;7285;50.894;5.462;2022-11-06T02:30:50;9.20;99.90
14401;DHT22;7285;50.894;5.462;2022-11-06T02:33:24;9.20;99.90
14401;DHT22;7285;50.894;5.462;2022-11-06T02:35:57;9.20;99.90
14401;DHT22;7285;50.894;5.462;2022-11-06T02:38:29;9.20;99.90
14401;DHT22;7285;50.894;5.462;2022-11-06T02:41:01;9.20;99.90
14401;DHT22;7285;50.894;5.462;2022-11-06T02:43:35;9.20;99.90
14401;DHT22;7285;50.894;5.462;2022-11-06T02:46:08;9.30;99.90
14401;DHT22;7285;50.894;5.462;2022-11-06T02:48:39;9.30;99.90
14401;DHT22;7285;50.894;5.462;2022-11-06T02:51:08;9.30;99.90
14401;DHT22;7285;50.894;5.462;2022-11-06T02:53:38;9.30;99.90
14401;DHT22;7285;50.894;5.462;2022-11-06T02:56:10;9.40;99.90
14401;DHT22;7285;50.894;5.462;2022-11-06T02:58:42;9.40;99.90
14401;DHT22;7285;50.894;5.462;2022-11-06T03:01:13;9.40;99.90
14401;DHT22;7285;50.894;5.462;2022-11-06T03:03:44;9.50;99.90
14401;DHT22;7285;50.894;5.462;2022-11-06T03:06:17;9.50;99.90
14401;DHT22;7285;50.894;5.462;2022-11-06T03:08:50;9.50;99.90
14401;DHT22;7285;50.894;5.462;2022-11-06T03:11:21;9.50;99.90
14401;DHT22;7285;50.894;5.462;2022-11-06T03:13:55;9.50;99.90
14401;DHT22;7285;50.894;5.462;2022-11-06T03:16:29;9.50;99.90
14401;DHT22;7285;50.894;5.462;2022-11-06T03:19:05;9.50;99.90
14401;DHT22;7285;50.894;5.462;2022-11-06T03:21:37;9.50;99.90
14401;DHT22;7285;50.894;5.462;2022-11-06T03:24:12;9.50;99.90
14401;DHT22;7285;50.894;5.462;2022-11-06T03:26:43;9.50;99.90
14401;DHT22;7285;50.894;5.462;2022-11-06T03:29:17;9.50;99.90
14401;DHT22;7285;50.894;5.462;2022-11-06T03:31:50;9.50;99.90
14401;DHT22;7285;50.894;5.462;2022-11-06T03:34:25;9.50;99.90
14401;DHT22;7285;50.894;5.462;2022-11-06T03:36:58;9.60;99.90
14401;DHT22;7285;50.894;5.462;2022-11-06T03:39:31;9.50;99.90
14401;DHT22;7285;50.894;5.462;2022-11-06T03:42:02;9.50;99.90
14401;DHT22;7285;50.894;5.462;2022-11-06T03:44:34;9.50;99.90
14401;DHT22;7285;50.894;5.462;2022-11-06T03:47:07;9.50;99.90
14401;DHT22;7285;50.894;5.462;2022-11-06T03:49:40;9.50;99.90
14401;DHT22;7285;50.894;5.462;2022-11-06T03:52:11;9.50;99.90
14401;DHT22;7285;50.894;5.462;2022-11-06T03:54:41;9.50;99.90
14401;DHT22;7285;50.894;5.462;2022-11-06T03:57:12;9.50;99.90
14401;DHT22;7285;50.894;5.462;2022-11-06T03:59:45;9.50;99.90
14401;DHT22;7285;50.894;5.462;2022-11-06T04:02:14;9.50;99.90
14401;DHT22;7285;50.894;5.462;2022-11-06T04:04:46;9.50;99.90
14401;DHT22;7285;50.894;5.462;2022-11-06T04:07:16;9.50;99.90
14401;DHT22;7285;50.894;5.462;2022-11-06T04:09:48;9.50;99.90
14401;DHT22;7285;50.894;5.462;2022-11-06T04:12:35;9.40;99.90
14401;DHT22;7285;50.894;5.462;2022-11-06T04:15:25;9.40;99.90
14401;DHT22;7285;50.894;5.462;2022-11-06T04:17:52;9.30;99.90
14401;DHT22;7285;50.894;5.462;2022-11-06T04:20:21;9.30;99.90
14401;DHT22;7285;50.894;5.462;2022-11-06T04:23:11;9.30;99.90
14401;DHT22;7285;50.894;5.462;2022-11-06T04:25:49;9.20;99.90
14401;DHT22;7285;50.894;5.462;2022-11-06T04:28:44;9.20;99.90
14401;DHT22;7285;50.894;5.462;2022-11-06T04:31:20;9.20;99.90
14401;DHT22;7285;50.894;5.462;2022-11-06T04:33:57;9.20;99.90
14401;DHT22;7285;50.894;5.462;2022-11-06T04:36:33;9.20;99.90
14401;DHT22;7285;50.894;5.462;2022-11-06T04:39:08;9.20;99.90
14401;DHT22;7285;50.894;5.462;2022-11-06T04:41:41;9.10;99.90
14401;DHT22;7285;50.894;5.462;2022-11-06T04:44:15;9.10;99.90
14401;DHT22;7285;50.894;5.462;2022-11-06T04:46:48;9.10;99.90
14401;DHT22;7285;50.894;5.462;2022-11-06T04:49:18;9.00;99.90
14401;DHT22;7285;50.894;5.462;2022-11-06T04:51:46;9.10;99.90
14401;DHT22;7285;50.894;5.462;2022-11-06T04:54:13;9.10;99.90
14401;DHT22;7285;50.894;5.462;2022-11-06T04:56:41;9.00;99.90
14401;DHT22;7285;50.894;5.462;2022-11-06T04:59:12;9.00;99.90
14401;DHT22;7285;50.894;5.462;2022-11-06T05:01:39;9.00;99.90
14401;DHT22;7285;50.894;5.462;2022-11-06T05:04:08;9.00;99.90
14401;DHT22;7285;50.894;5.462;2022-11-06T05:06:36;9.00;99.90
14401;DHT22;7285;50.894;5.462;2022-11-06T05:09:03;9.10;99.90
14401;DHT22;7285;50.894;5.462;2022-11-06T05:11:30;9.10;99.90
14401;DHT22;7285;50.894;5.462;2022-11-06T05:13:57;9.10;99.90
14401;DHT22;7285;50.894;5.462;2022-11-06T05:16:23;9.00;99.90
14401;DHT22;7285;50.894;5.462;2022-11-06T05:18:50;9.10;99.90
14401;DHT22;7285;50.894;5.462;2022-11-06T05:21:19;9.10;99.90
14401;DHT22;7285;50.894;5.462;2022-11-06T05:24:04;9.10;99.90
14401;DHT22;7285;50.894;5.462;2022-11-06T05:26:32;9.10;99.90
14401;DHT22;7285;50.894;5.462;2022-11-06T05:28:59;9.10;99.90
14401;DHT22;7285;50.894;5.462;2022-11-06T05:31:26;9.20;99.90
14401;DHT22;7285;50.894;5.462;2022-11-06T05:33:53;9.20;99.90
14401;DHT22;7285;50.894;5.462;2022-11-06T05:36:21;9.20;99.90
14401;DHT22;7285;50.894;5.462;2022-11-06T05:38:48;9.20;99.90
14401;DHT22;7285;50.894;5.462;2022-11-06T05:41:16;9.30;99.90
14401;DHT22;7285;50.894;5.462;2022-11-06T05:43:42;9.30;99.90
14401;DHT22;7285;50.894;5.462;2022-11-06T05:46:09;9.40;99.90
14401;DHT22;7285;50.894;5.462;2022-11-06T05:48:36;9.40;99.90
14401;DHT22;7285;50.894;5.462;2022-11-06T05:51:05;9.40;99.90
14401;DHT22;7285;50.894;5.462;2022-11-06T05:53:35;9.40;99.90
14401;DHT22;7285;50.894;5.462;2022-11-06T05:56:02;9.40;99.90
14401;DHT22;7285;50.894;5.462;2022-11-06T05:58:29;9.50;99.90
14401;DHT22;7285;50.894;5.462;2022-11-06T06:00:57;9.50;99.90
14401;DHT22;7285;50.894;5.462;2022-11-06T06:03:24;9.50;99.90
14401;DHT22;7285;50.894;5.462;2022-11-06T06:05:51;9.50;99.90
14401;DHT22;7285;50.894;5.462;2022-11-06T06:08:18;9.60;99.90
14401;DHT22;7285;50.894;5.462;2022-11-06T06:10:47;9.60;99.90
14401;DHT22;7285;50.894;5.462;2022-11-06T06:13:14;9.70;99.90
14401;DHT22;7285;50.894;5.462;2022-11-06T06:15:42;9.70;99.90
14401;DHT22;7285;50.894;5.462;2022-11-06T06:18:09;9.70;99.90
14401;DHT22;7285;50.894;5.462;2022-11-06T06:20:37;9.70;99.90
14401;DHT22;7285;50.894;5.462;2022-11-06T06:23:04;9.70;99.90
14401;DHT22;7285;50.894;5.462;2022-11-06T06:25:31;9.70;99.90
14401;DHT22;7285;50.894;5.462;2022-11-06T06:27:59;9.70;99.90
14401;DHT22;7285;50.894;5.462;2022-11-06T06:30:26;9.70;99.90
14401;DHT22;7285;50.894;5.462;2022-11-06T06:32:53;9.70;99.90
14401;DHT22;7285;50.894;5.462;2022-11-06T06:35:20;9.70;99.90
14401;DHT22;7285;50.894;5.462;2022-11-06T06:37:51;9.70;99.90
14401;DHT22;7285;50.894;5.462;2022-11-06T06:40:19;9.70;99.90
14401;DHT22;7285;50.894;5.462;2022-11-06T06:42:46;9.70;99.90
14401;DHT22;7285;50.894;5.462;2022-11-06T06:45:14;9.70;99.90
14401;DHT22;7285;50.894;5.462;2022-11-06T06:47:41;9.70;99.90
14401;DHT22;7285;50.894;5.462;2022-11-06T06:50:09;9.70;99.90
14401;DHT22;7285;50.894;5.462;2022-11-06T06:52:35;9.70;99.90
14401;DHT22;7285;50.894;5.462;2022-11-06T06:55:03;9.70;99.90
14401;DHT22;7285;50.894;5.462;2022-11-06T06:57:29;9.80;99.90
14401;DHT22;7285;50.894;5.462;2022-11-06T06:59:56;9.80;99.90
14401;DHT22;7285;50.894;5.462;2022-11-06T07:02:25;9.80;99.90
14401;DHT22;7285;50.894;5.462;2022-11-06T07:04:51;9.80;99.90
14401;DHT22;7285;50.894;5.462;2022-11-06T07:07:18;9.80;99.90
14401;DHT22;7285;50.894;5.462;2022-11-06T07:09:45;9.70;99.90
14401;DHT22;7285;50.894;5.462;2022-11-06T07:12:12;9.80;99.90
14401;DHT22;7285;50.894;5.462;2022-11-06T07:14:39;9.80;99.90
14401;DHT22;7285;50.894;5.462;2022-11-06T07:17:06;9.70;99.90
14401;DHT22;7285;50.894;5.462;2022-11-06T07:19:34;9.80;99.90
14401;DHT22;7285;50.894;5.462;2022-11-06T07:22:01;9.90;99.90
14401;DHT22;7285;50.894;5.462;2022-11-06T07:24:28;9.90;99.90
14401;DHT22;7285;50.894;5.462;2022-11-06T07:26:55;9.90;99.90
14401;DHT22;7285;50.894;5.462;2022-11-06T07:29:21;10.00;99.90
14401;DHT22;7285;50.894;5.462;2022-11-06T07:31:48;10.00;99.90
14401;DHT22;7285;50.894;5.462;2022-11-06T07:34:15;10.00;99.90
14401;DHT22;7285;50.894;5.462;2022-11-06T07:36:43;10.10;99.90
14401;DHT22;7285;50.894;5.462;2022-11-06T07:39:10;10.10;99.90
14401;DHT22;7285;50.894;5.462;2022-11-06T07:41:37;10.10;99.90
14401;DHT22;7285;50.894;5.462;2022-11-06T07:44:04;10.20;99.90
14401;DHT22;7285;50.894;5.462;2022-11-06T07:46:31;10.10;99.90
14401;DHT22;7285;50.894;5.462;2022-11-06T07:48:58;10.20;99.90
14401;DHT22;7285;50.894;5.462;2022-11-06T07:51:25;10.20;99.90
14401;DHT22;7285;50.894;5.462;2022-11-06T07:53:53;10.10;99.90
14401;DHT22;7285;50.894;5.462;2022-11-06T07:56:20;10.10;99.90
14401;DHT22;7285;50.894;5.462;2022-11-06T07:58:47;10.00;99.90
14401;DHT22;7285;50.894;5.462;2022-11-06T08:01:15;10.00;99.90
14401;DHT22;7285;50.894;5.462;2022-11-06T08:03:42;9.90;99.90
14401;DHT22;7285;50.894;5.462;2022-11-06T08:06:09;9.80;99.90
14401;DHT22;7285;50.894;5.462;2022-11-06T08:08:36;9.80;99.90
14401;DHT22;7285;50.894;5.462;2022-11-06T08:11:07;9.80;99.90
14401;DHT22;7285;50.894;5.462;2022-11-06T08:13:34;9.80;99.90
14401;DHT22;7285;50.894;5.462;2022-11-06T08:16:04;9.90;99.90
14401;DHT22;7285;50.894;5.462;2022-11-06T08:18:32;10.00;99.90
14401;DHT22;7285;50.894;5.462;2022-11-06T08:20:59;10.10;99.90
14401;DHT22;7285;50.894;5.462;2022-11-06T08:23:26;10.20;99.90
14401;DHT22;7285;50.894;5.462;2022-11-06T08:25:54;10.20;99.90
14401;DHT22;7285;50.894;5.462;2022-11-06T08:28:23;10.30;99.90
14401;DHT22;7285;50.894;5.462;2022-11-06T08:30:50;10.30;99.90
14401;DHT22;7285;50.894;5.462;2022-11-06T08:33:18;10.30;99.90
14401;DHT22;7285;50.894;5.462;2022-11-06T08:35:47;10.20;99.90
14401;DHT22;7285;50.894;5.462;2022-11-06T08:38:13;10.20;99.90
14401;DHT22;7285;50.894;5.462;2022-11-06T08:40:40;10.20;99.90
14401;DHT22;7285;50.894;5.462;2022-11-06T08:43:09;10.20;99.90
14401;DHT22;7285;50.894;5.462;2022-11-06T08:45:39;10.20;99.90
14401;DHT22;7285;50.894;5.462;2022-11-06T08:48:06;10.20;99.90
14401;DHT22;7285;50.894;5.462;2022-11-06T08:50:35;10.30;99.90
14401;DHT22;7285;50.894;5.462;2022-11-06T08:53:03;10.20;99.90
14401;DHT22;7285;50.894;5.462;2022-11-06T08:55:33;10.30;99.90
14401;DHT22;7285;50.894;5.462;2022-11-06T08:58:00;10.30;99.90
14401;DHT22;7285;50.894;5.462;2022-11-06T09:00:28;10.30;99.90
14401;DHT22;7285;50.894;5.462;2022-11-06T09:03:00;10.40;99.90
14401;DHT22;7285;50.894;5.462;2022-11-06T09:05:27;10.40;99.90
14401;DHT22;7285;50.894;5.462;2022-11-06T09:07:55;10.40;99.90
14401;DHT22;7285;50.894;5.462;2022-11-06T09:10:23;10.50;99.90
14401;DHT22;7285;50.894;5.462;2022-11-06T09:12:50;10.50;99.90
14401;DHT22;7285;50.894;5.462;2022-11-06T09:15:17;10.60;99.90
14401;DHT22;7285;50.894;5.462;2022-11-06T09:17:45;10.60;99.90
14401;DHT22;7285;50.894;5.462;2022-11-06T09:20:15;10.70;99.90
14401;DHT22;7285;50.894;5.462;2022-11-06T09:22:42;10.70;99.90
14401;DHT22;7285;50.894;5.462;2022-11-06T09:25:09;10.80;99.90
14401;DHT22;7285;50.894;5.462;2022-11-06T09:27:41;10.90;99.90
14401;DHT22;7285;50.894;5.462;2022-11-06T09:30:10;11.00;99.90
14401;DHT22;7285;50.894;5.462;2022-11-06T09:32:37;11.20;99.90
14401;DHT22;7285;50.894;5.462;2022-11-06T09:35:05;11.30;99.90
14401;DHT22;7285;50.894;5.462;2022-11-06T09:37:33;11.30;99.90
14401;DHT22;7285;50.894;5.462;2022-11-06T09:40:01;11.30;99.90
14401;DHT22;7285;50.894;5.462;2022-11-06T09:42:38;11.30;99.90
14401;DHT22;7285;50.894;5.462;2022-11-06T09:45:11;11.30;99.90
14401;DHT22;7285;50.894;5.462;2022-11-06T09:47:44;11.30;99.90
14401;DHT22;7285;50.894;5.462;2022-11-06T09:50:17;11.30;99.90
14401;DHT22;7285;50.894;5.462;2022-11-06T09:52:49;11.30;99.90
14401;DHT22;7285;50.894;5.462;2022-11-06T09:55:20;11.30;99.90
14401;DHT22;7285;50.894;5.462;2022-11-06T09:57:51;11.30;99.90
14401;DHT22;7285;50.894;5.462;2022-11-06T10:00:19;11.30;99.90
14401;DHT22;7285;50.894;5.462;2022-11-06T10:02:47;11.40;99.90
14401;DHT22;7285;50.894;5.462;2022-11-06T10:05:23;11.40;99.90
14401;DHT22;7285;50.894;5.462;2022-11-06T10:07:54;11.40;99.90
14401;DHT22;7285;50.894;5.462;2022-11-06T10:10:26;11.40;99.90
14401;DHT22;7285;50.894;5.462;2022-11-06T10:13:14;11.50;99.90
14401;DHT22;7285;50.894;5.462;2022-11-06T10:15:50;11.50;99.90
14401;DHT22;7285;50.894;5.462;2022-11-06T10:18:28;11.40;99.90
14401;DHT22;7285;50.894;5.462;2022-11-06T10:21:03;11.50;99.90
14401;DHT22;7285;50.894;5.462;2022-11-06T10:23:43;11.50;99.90
14401;DHT22;7285;50.894;5.462;2022-11-06T10:26:12;11.50;99.90
14401;DHT22;7285;50.894;5.462;2022-11-06T10:29:12;11.50;99.90
14401;DHT22;7285;50.894;5.462;2022-11-06T10:31:47;11.60;99.90
14401;DHT22;7285;50.894;5.462;2022-11-06T10:34:20;11.70;99.90
14401;DHT22;7285;50.894;5.462;2022-11-06T10:36:51;11.80;99.90
14401;DHT22;7285;50.894;5.462;2022-11-06T10:39:26;11.90;99.90
14401;DHT22;7285;50.894;5.462;2022-11-06T10:41:59;12.10;99.90
14401;DHT22;7285;50.894;5.462;2022-11-06T10:44:31;12.30;99.90
14401;DHT22;7285;50.894;5.462;2022-11-06T10:47:02;12.30;99.90
14401;DHT22;7285;50.894;5.462;2022-11-06T10:49:35;12.40;99.90
14401;DHT22;7285;50.894;5.462;2022-11-06T10:52:26;12.30;99.90
14401;DHT22;7285;50.894;5.462;2022-11-06T10:55:10;12.40;99.90
14401;DHT22;7285;50.894;5.462;2022-11-06T10:57:43;12.90;99.90
14401;DHT22;7285;50.894;5.462;2022-11-06T11:00:11;12.90;99.90
14401;DHT22;7285;50.894;5.462;2022-11-06T11:02:41;13.00;99.90
14401;DHT22;7285;50.894;5.462;2022-11-06T11:05:11;12.90;99.90
14401;DHT22;7285;50.894;5.462;2022-11-06T11:07:39;12.70;99.90
14401;DHT22;7285;50.894;5.462;2022-11-06T11:10:26;12.50;99.90
14401;DHT22;7285;50.894;5.462;2022-11-06T11:12:55;12.30;99.90
14401;DHT22;7285;50.894;5.462;2022-11-06T11:15:24;12.30;99.90
14401;DHT22;7285;50.894;5.462;2022-11-06T11:18:14;12.30;99.90
14401;DHT22;7285;50.894;5.462;2022-11-06T11:20:42;12.30;99.90
14401;DHT22;7285;50.894;5.462;2022-11-06T11:23:15;12.30;99.90
14401;DHT22;7285;50.894;5.462;2022-11-06T11:25:45;12.30;99.90
14401;DHT22;7285;50.894;5.462;2022-11-06T11:28:27;12.40;99.90
14401;DHT22;7285;50.894;5.462;2022-11-06T11:31:00;12.30;99.90
14401;DHT22;7285;50.894;5.462;2022-11-06T11:33:28;12.30;99.90
14401;DHT22;7285;50.894;5.462;2022-11-06T11:35:55;12.10;99.90
14401;DHT22;7285;50.894;5.462;2022-11-06T11:38:22;12.00;99.90
14401;DHT22;7285;50.894;5.462;2022-11-06T11:41:04;12.00;99.90
14401;DHT22;7285;50.894;5.462;2022-11-06T11:43:32;11.90;99.90
14401;DHT22;7285;50.894;5.462;2022-11-06T11:46:04;12.00;99.90
14401;DHT22;7285;50.894;5.462;2022-11-06T11:48:41;11.90;99.90
14401;DHT22;7285;50.894;5.462;2022-11-06T11:51:25;11.90;99.90
14401;DHT22;7285;50.894;5.462;2022-11-06T11:53:55;12.00;99.90
14401;DHT22;7285;50.894;5.462;2022-11-06T11:56:24;12.00;99.90
14401;DHT22;7285;50.894;5.462;2022-11-06T11:58:55;12.00;99.90
14401;DHT22;7285;50.894;5.462;2022-11-06T12:01:35;12.00;99.90
14401;DHT22;7285;50.894;5.462;2022-11-06T12:04:09;11.90;99.90
14401;DHT22;7285;50.894;5.462;2022-11-06T12:06:52;12.00;99.90
14401;DHT22;7285;50.894;5.462;2022-11-06T12:09:20;11.90;99.90
14401;DHT22;7285;50.894;5.462;2022-11-06T12:11:51;12.00;99.90
14401;DHT22;7285;50.894;5.462;2022-11-06T12:14:34;12.00;99.90
14401;DHT22;7285;50.894;5.462;2022-11-06T12:17:14;12.00;99.90
14401;DHT22;7285;50.894;5.462;2022-11-06T12:19:46;12.00;99.90
14401;DHT22;7285;50.894;5.462;2022-11-06T12:22:20;11.90;99.90
14401;DHT22;7285;50.894;5.462;2022-11-06T12:24:52;11.80;99.90
14401;DHT22;7285;50.894;5.462;2022-11-06T12:27:25;11.80;99.90
14401;DHT22;7285;50.894;5.462;2022-11-06T12:30:01;11.80;99.90
14401;DHT22;7285;50.894;5.462;2022-11-06T12:32:39;11.70;99.90
14401;DHT22;7285;50.894;5.462;2022-11-06T12:35:17;11.70;99.90
14401;DHT22;7285;50.894;5.462;2022-11-06T12:37:54;11.70;99.90
14401;DHT22;7285;50.894;5.462;2022-11-06T12:40:27;11.60;99.90
14401;DHT22;7285;50.894;5.462;2022-11-06T12:43:07;11.60;99.90
14401;DHT22;7285;50.894;5.462;2022-11-06T12:45:45;11.60;99.90
14401;DHT22;7285;50.894;5.462;2022-11-06T12:48:24;11.60;99.90
14401;DHT22;7285;50.894;5.462;2022-11-06T12:50:58;11.50;99.90
14401;DHT22;7285;50.894;5.462;2022-11-06T12:53:38;11.50;99.90
14401;DHT22;7285;50.894;5.462;2022-11-06T12:56:16;11.50;99.90
14401;DHT22;7285;50.894;5.462;2022-11-06T12:59:01;11.50;99.90
14401;DHT22;7285;50.894;5.462;2022-11-06T13:01:44;11.40;99.90
14401;DHT22;7285;50.894;5.462;2022-11-06T13:04:33;11.40;99.90
14401;DHT22;7285;50.894;5.462;2022-11-06T13:07:20;11.40;99.90
14401;DHT22;7285;50.894;5.462;2022-11-06T13:09:56;11.30;99.90
14401;DHT22;7285;50.894;5.462;2022-11-06T13:12:31;11.20;99.90
14401;DHT22;7285;50.894;5.462;2022-11-06T13:15:09;11.10;99.90
14401;DHT22;7285;50.894;5.462;2022-11-06T13:17:42;11.00;99.90
14401;DHT22;7285;50.894;5.462;2022-11-06T13:20:17;11.00;99.90
14401;DHT22;7285;50.894;5.462;2022-11-06T13:22:52;10.90;99.90
14401;DHT22;7285;50.894;5.462;2022-11-06T13:25:27;10.80;99.90
14401;DHT22;7285;50.894;5.462;2022-11-06T13:27:59;10.80;99.90
14401;DHT22;7285;50.894;5.462;2022-11-06T13:30:31;10.70;99.90
14401;DHT22;7285;50.894;5.462;2022-11-06T13:33:05;10.60;99.90
14401;DHT22;7285;50.894;5.462;2022-11-06T13:35:35;10.50;99.90
14401;DHT22;7285;50.894;5.462;2022-11-06T13:38:06;10.50;99.90
14401;DHT22;7285;50.894;5.462;2022-11-06T13:40:36;10.40;99.90
14401;DHT22;7285;50.894;5.462;2022-11-06T13:43:11;10.30;99.90
14401;DHT22;7285;50.894;5.462;2022-11-06T13:45:45;10.30;99.90
14401;DHT22;7285;50.894;5.462;2022-11-06T13:48:21;10.20;99.90
14401;DHT22;7285;50.894;5.462;2022-11-06T13:50:52;10.20;99.90
14401;DHT22;7285;50.894;5.462;2022-11-06T13:53:27;10.10;99.90
14401;DHT22;7285;50.894;5.462;2022-11-06T13:56:05;10.10;99.90
14401;DHT22;7285;50.894;5.462;2022-11-06T13:59:15;10.10;99.90
14401;DHT22;7285;50.894;5.462;2022-11-06T14:01:58;10.00;99.90
14401;DHT22;7285;50.894;5.462;2022-11-06T14:07:27;9.90;99.90
14401;DHT22;7285;50.894;5.462;2022-11-06T14:09:56;9.80;99.90
14401;DHT22;7285;50.894;5.462;2022-11-06T14:12:23;9.80;99.90
14401;DHT22;7285;50.894;5.462;2022-11-06T14:14:52;9.70;99.90
14401;DHT22;7285;50.894;5.462;2022-11-06T14:17:40;9.70;99.90
14401;DHT22;7285;50.894;5.462;2022-11-06T14:20:27;9.60;99.90
14401;DHT22;7285;50.894;5.462;2022-11-06T14:22:55;9.60;99.90
14401;DHT22;7285;50.894;5.462;2022-11-06T14:25:57;9.50;99.90
14401;DHT22;7285;50.894;5.462;2022-11-06T14:28:29;9.40;99.90
14401;DHT22;7285;50.894;5.462;2022-11-06T14:30:56;9.40;99.90
14401;DHT22;7285;50.894;5.462;2022-11-06T14:33:58;9.40;99.90
14401;DHT22;7285;50.894;5.462;2022-11-06T14:36:28;9.30;99.90
14401;DHT22;7285;50.894;5.462;2022-11-06T14:38:55;9.30;99.90
14401;DHT22;7285;50.894;5.462;2022-11-06T14:41:52;9.20;99.90
14401;DHT22;7285;50.894;5.462;2022-11-06T14:44:42;9.10;99.90
14401;DHT22;7285;50.894;5.462;2022-11-06T14:47:30;9.10;99.90
14401;DHT22;7285;50.894;5.462;2022-11-06T14:50:04;9.10;99.90
14401;DHT22;7285;50.894;5.462;2022-11-06T14:52:41;9.00;99.90
14401;DHT22;7285;50.894;5.462;2022-11-06T14:55:22;9.00;99.90
14401;DHT22;7285;50.894;5.462;2022-11-06T14:57:53;9.00;99.90
14401;DHT22;7285;50.894;5.462;2022-11-06T15:00:35;8.90;99.90
14401;DHT22;7285;50.894;5.462;2022-11-06T15:03:07;8.90;99.90
14401;DHT22;7285;50.894;5.462;2022-11-06T15:05:41;8.90;99.90
14401;DHT22;7285;50.894;5.462;2022-11-06T15:08:08;8.90;99.90
14401;DHT22;7285;50.894;5.462;2022-11-06T15:10:50;8.90;99.90
14401;DHT22;7285;50.894;5.462;2022-11-06T15:13:26;8.80;99.90
14401;DHT22;7285;50.894;5.462;2022-11-06T15:16:00;8.80;99.90
14401;DHT22;7285;50.894;5.462;2022-11-06T15:18:28;8.80;99.90
14401;DHT22;7285;50.894;5.462;2022-11-06T15:20:59;8.80;99.90
14401;DHT22;7285;50.894;5.462;2022-11-06T15:23:31;8.80;99.90
14401;DHT22;7285;50.894;5.462;2022-11-06T15:26:03;8.80;99.90
14401;DHT22;7285;50.894;5.462;2022-11-06T15:28:39;8.70;99.90
14401;DHT22;7285;50.894;5.462;2022-11-06T15:31:13;8.70;99.90
14401;DHT22;7285;50.894;5.462;2022-11-06T15:33:48;8.70;99.90
14401;DHT22;7285;50.894;5.462;2022-11-06T15:36:17;8.70;99.90
14401;DHT22;7285;50.894;5.462;2022-11-06T15:38:45;8.70;99.90
14401;DHT22;7285;50.894;5.462;2022-11-06T15:41:15;8.70;99.90
14401;DHT22;7285;50.894;5.462;2022-11-06T15:43:46;8.70;99.90
14401;DHT22;7285;50.894;5.462;2022-11-06T15:46:20;8.70;99.90
14401;DHT22;7285;50.894;5.462;2022-11-06T15:48:48;8.70;99.90
14401;DHT22;7285;50.894;5.462;2022-11-06T15:51:31;8.70;99.90
14401;DHT22;7285;50.894;5.462;2022-11-06T15:53:58;8.60;99.90
14401;DHT22;7285;50.894;5.462;2022-11-06T15:56:28;8.70;99.90
14401;DHT22;7285;50.894;5.462;2022-11-06T15:59:07;8.60;99.90
14401;DHT22;7285;50.894;5.462;2022-11-06T16:01:34;8.60;99.90
14401;DHT22;7285;50.894;5.462;2022-11-06T16:04:05;8.60;99.90
14401;DHT22;7285;50.894;5.462;2022-11-06T16:06:32;8.60;99.90
14401;DHT22;7285;50.894;5.462;2022-11-06T16:09:01;8.60;99.90
14401;DHT22;7285;50.894;5.462;2022-11-06T16:11:28;8.60;99.90
14401;DHT22;7285;50.894;5.462;2022-11-06T16:13:56;8.50;99.90
14401;DHT22;7285;50.894;5.462;2022-11-06T16:16:38;8.50;99.90
14401;DHT22;7285;50.894;5.462;2022-11-06T16:19:23;8.50;99.90
14401;DHT22;7285;50.894;5.462;2022-11-06T16:21:53;8.50;99.90
14401;DHT22;7285;50.894;5.462;2022-11-06T16:24:22;8.50;99.90
14401;DHT22;7285;50.894;5.462;2022-11-06T16:26:51;8.50;99.90